Time;durP1;ratioP1;P1;durP2;ratioP2;P2;SDS_P1;SDS_P2;PMS_P1;PMS_P2;Temp;Humidity;BMP_temperature;BMP_pressure;BME280_temperature;BME280_humidity;BME280_pressure;Samples;Min_cycle;Max_cycle;Signal;HPM_P1;HPM_P2
2022/04/06 00:01:44;;;;;;;6.75;4.18;;;6.50;99.90;;;;;;4923556;28;20283;-60
2022/04/06 00:04:11;;;;;;;5.05;3.92;;;6.40;99.90;;;;;;4931396;28;20046;-60
2022/04/06 00:06:39;;;;;;;3.78;3.22;;;6.40;99.90;;;;;;4929771;28;20192;-59
2022/04/06 00:09:16;;;;;;;;;;;6.40;99.90;;;;;;4930282;28;20038;-60
2022/04/06 00:11:43;;;;;;;5.18;3.60;;;6.40;99.90;;;;;;4930583;28;19922;-60
2022/04/06 00:14:10;;;;;;;5.65;4.05;;;6.40;99.90;;;;;;4930207;28;20124;-60
2022/04/06 00:16:37;;;;;;;4.18;3.40;;;6.40;99.90;;;;;;4928982;28;20054;-60
2022/04/06 00:19:04;;;;;;;3.95;3.53;;;6.40;99.90;;;;;;4925582;28;20916;-60
2022/04/06 00:21:31;;;;;;;4.25;3.38;;;6.40;99.90;;;;;;4930383;28;20940;-59
2022/04/06 00:23:58;;;;;;;5.28;3.20;;;6.40;99.90;;;;;;4930720;28;20049;-60
2022/04/06 00:26:25;;;;;;;4.85;3.97;;;6.40;99.90;;;;;;4930247;28;20125;-59
2022/04/06 00:28:52;;;;;;;3.53;2.92;;;6.40;99.90;;;;;;4931431;28;20109;-59
2022/04/06 00:31:19;;;;;;;4.35;3.60;;;6.30;99.90;;;;;;4927033;28;20064;-59
2022/04/06 00:33:47;;;;;;;6.22;4.38;;;6.30;99.90;;;;;;4930453;28;20049;-59
2022/04/06 00:36:14;;;;;;;6.13;3.83;;;6.30;99.90;;;;;;4929196;28;20200;-59
2022/04/06 00:38:41;;;;;;;5.10;3.92;;;6.20;99.90;;;;;;4928777;28;20046;-60
2022/04/06 00:41:08;;;;;;;5.68;3.90;;;6.20;99.90;;;;;;4926154;28;20050;-59
2022/04/06 00:43:35;;;;;;;8.32;3.78;;;6.20;99.90;;;;;;4930203;28;20042;-59
2022/04/06 00:46:02;;;;;;;5.40;4.00;;;6.20;99.90;;;;;;4929593;28;20540;-59
2022/04/06 00:48:30;;;;;;;5.15;3.13;;;6.10;99.90;;;;;;4928036;28;20046;-59
2022/04/06 00:50:57;;;;;;;5.72;3.90;;;6.10;99.90;;;;;;4929391;28;20070;-59
2022/04/06 00:53:25;;;;;;;6.13;3.92;;;6.10;99.90;;;;;;4914268;28;20038;-59
2022/04/06 00:55:53;;;;;;;6.45;3.53;;;6.10;99.90;;;;;;4927820;28;20038;-59
2022/04/06 00:58:21;;;;;;;4.72;3.60;;;6.10;99.90;;;;;;4929083;28;20038;-59
2022/04/06 01:00:48;;;;;;;6.35;3.60;;;6.20;99.90;;;;;;4928037;28;20046;-59
2022/04/06 01:03:14;;;;;;;4.45;3.75;;;6.20;99.90;;;;;;4909697;28;20560;-60
2022/04/06 01:05:42;;;;;;;;;;;6.20;99.90;;;;;;4929061;28;20062;-58
2022/04/06 01:08:11;;;;;;;4.82;3.58;;;6.20;99.90;;;;;;4928238;28;19929;-59
2022/04/06 01:10:38;;;;;;;4.20;3.40;;;6.20;99.90;;;;;;4925246;28;20038;-59
2022/04/06 01:13:06;;;;;;;4.50;4.03;;;6.20;99.90;;;;;;4929983;28;20038;-59
2022/04/06 01:15:33;;;;;;;4.70;3.83;;;6.20;99.90;;;;;;4928740;28;20548;-59
2022/04/06 01:18:00;;;;;;;7.32;3.72;;;6.20;99.90;;;;;;4927236;28;20193;-59
2022/04/06 01:20:29;;;;;;;4.15;3.67;;;6.10;99.90;;;;;;4929152;28;20323;-59
2022/04/06 01:22:57;;;;;;;5.30;3.50;;;6.20;99.90;;;;;;4928024;28;20042;-58
2022/04/06 01:25:27;;;;;;;7.20;4.35;;;6.10;99.90;;;;;;4927703;28;20046;-59
2022/04/06 01:27:55;;;;;;;5.22;3.67;;;6.10;99.90;;;;;;4929290;28;20337;-61
2022/04/06 01:30:21;;;;;;;;;;;6.10;99.90;;;;;;4929219;28;20608;-59
2022/04/06 01:32:48;;;;;;;5.20;3.35;;;6.10;99.90;;;;;;4930278;28;19921;-59
2022/04/06 01:35:15;;;;;;;;;;;6.10;99.90;;;;;;4928479;28;20053;-59
2022/04/06 01:37:43;;;;;;;5.00;3.35;;;6.10;99.90;;;;;;4928165;28;19921;-59
2022/04/06 01:40:10;;;;;;;3.95;3.40;;;6.10;99.90;;;;;;4925010;28;20213;-59
2022/04/06 01:42:37;;;;;;;6.82;4.22;;;6.10;99.90;;;;;;4929925;28;20057;-59
2022/04/06 01:45:05;;;;;;;5.95;4.05;;;6.00;99.90;;;;;;4927141;28;20038;-59
2022/04/06 01:47:32;;;;;;;5.88;3.53;;;6.00;99.90;;;;;;4924955;28;20145;-59
2022/04/06 01:52:44;;;;;;;4.28;3.85;;;6.00;99.90;;;;;;4929193;28;20552;-59
2022/04/06 01:55:14;;;;;;;4.72;3.55;;;6.00;99.90;;;;;;4928306;28;20042;-59
2022/04/06 01:57:41;;;;;;;11.07;5.38;;;6.00;99.90;;;;;;4927700;28;20042;-60
2022/04/06 02:00:11;;;;;;;4.53;3.22;;;6.00;99.90;;;;;;4929003;28;20223;-59
2022/04/06 02:02:43;;;;;;;4.68;3.13;;;6.00;99.90;;;;;;4930251;28;20046;-59
2022/04/06 02:05:13;;;;;;;5.47;3.53;;;6.00;99.90;;;;;;4928243;28;20080;-60
2022/04/06 02:07:42;;;;;;;4.25;3.45;;;6.00;99.90;;;;;;4925064;28;20061;-59
2022/04/06 02:10:10;;;;;;;6.35;3.50;;;6.00;99.90;;;;;;4936305;28;20045;-59
2022/04/06 02:12:39;;;;;;;4.50;3.35;;;6.00;99.90;;;;;;4932124;28;20042;-59
2022/04/06 02:15:10;;;;;;;5.18;3.63;;;6.00;99.90;;;;;;4925000;28;20339;-59
2022/04/06 02:17:37;;;;;;;3.95;3.20;;;6.00;99.90;;;;;;4927677;28;20824;-59
2022/04/06 02:20:05;;;;;;;4.82;3.20;;;6.00;99.90;;;;;;4920910;28;20165;-59
2022/04/06 02:22:32;;;;;;;7.53;4.07;;;6.00;99.90;;;;;;4932551;28;20250;-59
2022/04/06 02:24:59;;;;;;;4.82;3.03;;;6.00;99.90;;;;;;4923492;28;20228;-60
2022/04/06 02:27:26;;;;;;;6.65;3.63;;;6.00;99.90;;;;;;4927823;28;20132;-59
2022/04/06 02:29:53;;;;;;;5.50;3.63;;;5.90;99.90;;;;;;4930002;28;20049;-60
2022/04/06 02:32:21;;;;;;;4.85;3.25;;;6.00;99.90;;;;;;4927597;28;20844;-61
2022/04/06 02:34:52;;;;;;;4.30;3.30;;;5.90;99.90;;;;;;4930988;28;20602;-61
2022/04/06 02:37:19;;;;;;;4.32;3.28;;;5.90;99.90;;;;;;4928398;28;20556;-60
2022/04/06 02:39:49;;;;;;;4.22;3.45;;;5.90;99.90;;;;;;4926730;28;20030;-60
2022/04/06 02:42:17;;;;;;;4.57;3.55;;;5.90;99.90;;;;;;4926889;28;20042;-60
2022/04/06 02:44:44;;;;;;;5.78;4.20;;;5.90;99.90;;;;;;4927631;28;20142;-60
2022/04/06 02:47:10;;;;;;;;;;;5.90;99.90;;;;;;4926624;28;20252;-60
2022/04/06 02:49:37;;;;;;;4.78;3.60;;;5.90;99.90;;;;;;4927804;28;19922;-60
2022/04/06 02:52:05;;;;;;;5.70;4.18;;;5.90;99.90;;;;;;4924902;28;20070;-60
2022/04/06 02:54:32;;;;;;;5.43;3.65;;;5.90;99.90;;;;;;4926522;28;20547;-60
2022/04/06 02:56:59;;;;;;;5.50;3.40;;;5.90;99.90;;;;;;4926989;28;20039;-59
2022/04/06 02:59:26;;;;;;;6.07;4.40;;;5.90;99.90;;;;;;4927731;28;20045;-60
2022/04/06 03:01:53;;;;;;;6.55;4.43;;;5.90;99.90;;;;;;4925989;28;20290;-61
2022/04/06 03:04:20;;;;;;;7.38;4.50;;;5.90;99.90;;;;;;4924416;28;20149;-61
2022/04/06 03:06:46;;;;;;;;;;;5.90;99.90;;;;;;4929947;28;20719;-60
2022/04/06 03:09:13;;;;;;;4.88;3.53;;;5.80;99.90;;;;;;4927968;28;20689;-60
2022/04/06 03:11:41;;;;;;;6.35;4.30;;;5.80;99.90;;;;;;4927793;28;20469;-60
2022/04/06 03:14:09;;;;;;;4.88;3.65;;;5.80;99.90;;;;;;4931974;28;20062;-60
2022/04/06 03:16:36;;;;;;;4.15;3.67;;;5.80;99.90;;;;;;4930191;28;20058;-60
2022/04/06 03:19:03;;;;;;;4.00;3.20;;;5.80;99.90;;;;;;4931651;28;20690;-60
2022/04/06 03:21:30;;;;;;;3.17;2.88;;;5.80;99.90;;;;;;4932258;28;20047;-60
2022/04/06 03:23:58;;;;;;;4.43;3.72;;;5.80;99.90;;;;;;4933157;28;20046;-60
2022/04/06 03:26:25;;;;;;;3.78;3.17;;;5.80;99.90;;;;;;4931990;28;20072;-60
2022/04/06 03:28:52;;;;;;;;;;;5.80;99.90;;;;;;4929804;28;20046;-60
2022/04/06 03:31:19;;;;;;;4.05;3.00;;;5.90;99.90;;;;;;4931564;28;19967;-60
2022/04/06 03:33:46;;;;;;;4.75;2.90;;;5.80;99.90;;;;;;4931014;28;20552;-60
2022/04/06 03:36:13;;;;;;;4.75;3.30;;;5.80;99.90;;;;;;4931229;28;20041;-60
2022/04/06 03:38:40;;;;;;;5.82;4.28;;;5.80;99.90;;;;;;4927382;28;20582;-60
2022/04/06 03:41:07;;;;;;;5.47;4.22;;;5.80;99.90;;;;;;4928747;28;20038;-60
2022/04/06 03:43:35;;;;;;;7.70;4.40;;;5.80;99.90;;;;;;4931984;28;20054;-60
2022/04/06 03:46:02;;;;;;;6.68;4.35;;;5.70;99.90;;;;;;4930189;28;20879;-60
2022/04/06 03:48:29;;;;;;;5.68;3.67;;;5.70;99.90;;;;;;4933105;28;20073;-60
2022/04/06 03:50:56;;;;;;;4.85;3.72;;;5.70;99.90;;;;;;4927487;28;20061;-61
2022/04/06 03:53:23;;;;;;;4.85;2.92;;;5.70;99.90;;;;;;4929888;28;20300;-60
2022/04/06 03:55:51;;;;;;;4.00;2.67;;;5.70;99.90;;;;;;4931228;28;20050;-61
2022/04/06 03:58:18;;;;;;;3.88;3.03;;;5.70;99.90;;;;;;4929340;28;20547;-60
2022/04/06 04:00:45;;;;;;;;;;;5.70;99.90;;;;;;4931622;28;20050;-61
2022/04/06 04:03:12;;;;;;;4.85;2.95;;;5.80;99.90;;;;;;4930202;28;19928;-61
2022/04/06 04:05:39;;;;;;;5.38;3.33;;;5.70;99.90;;;;;;4929259;28;20054;-61
2022/04/06 04:08:06;;;;;;;3.88;3.00;;;5.80;99.90;;;;;;4927940;28;20903;-60
2022/04/06 04:10:33;;;;;;;6.15;3.83;;;5.70;99.90;;;;;;4930054;28;20039;-61
2022/04/06 04:13:00;;;;;;;9.73;3.72;;;5.70;99.90;;;;;;4931174;28;20740;-60
2022/04/06 04:15:27;;;;;;;5.68;4.13;;;5.70;99.90;;;;;;4910896;28;20216;-60
2022/04/06 04:17:54;;;;;;;6.90;4.18;;;5.70;99.90;;;;;;4929851;28;20725;-60
2022/04/06 04:20:21;;;;;;;6.03;4.30;;;5.70;99.90;;;;;;4930380;28;20043;-60
2022/04/06 04:22:48;;;;;;;5.47;4.32;;;5.70;99.90;;;;;;4933499;28;20907;-61
2022/04/06 04:25:15;;;;;;;6.97;3.90;;;5.70;99.90;;;;;;4932784;28;20517;-59
2022/04/06 04:27:42;;;;;;;5.47;3.78;;;5.70;99.90;;;;;;4932031;28;20737;-59
2022/04/06 04:30:10;;;;;;;3.47;2.78;;;5.70;99.90;;;;;;4913197;28;20046;-59
2022/04/06 04:32:37;;;;;;;5.38;3.50;;;5.70;99.90;;;;;;4929087;28;21084;-60
2022/04/06 04:35:06;;;;;;;3.13;2.83;;;5.70;99.90;;;;;;4932843;28;20043;-60
2022/04/06 04:37:34;;;;;;;7.22;3.35;;;5.70;99.90;;;;;;4911415;28;20034;-60
2022/04/06 04:40:02;;;;;;;3.55;2.92;;;5.70;99.90;;;;;;4930699;28;20200;-59
2022/04/06 04:42:29;;;;;;;5.47;3.65;;;5.70;99.90;;;;;;4930464;28;20788;-60
2022/04/06 04:44:56;;;;;;;3.88;3.20;;;5.70;99.90;;;;;;4927327;28;20317;-60
2022/04/06 04:47:24;;;;;;;4.45;3.00;;;5.70;99.90;;;;;;4929587;28;20034;-60
2022/04/06 04:49:51;;;;;;;4.13;3.42;;;5.70;99.90;;;;;;4930652;28;20042;-60
2022/04/06 04:52:18;;;;;;;4.60;3.22;;;5.70;99.90;;;;;;4930271;28;20050;-60
2022/04/06 04:54:45;;;;;;;4.93;3.22;;;5.70;99.90;;;;;;4930214;28;20042;-59
2022/04/06 04:57:12;;;;;;;5.10;3.58;;;5.70;99.90;;;;;;4911562;28;20153;-60
2022/04/06 04:59:39;;;;;;;4.70;3.85;;;5.70;99.90;;;;;;4929134;28;20039;-60
2022/04/06 05:02:06;;;;;;;5.38;3.65;;;5.70;99.90;;;;;;4930514;28;20046;-60
2022/04/06 05:04:33;;;;;;;5.32;3.80;;;5.70;99.90;;;;;;4929553;28;20618;-61
2022/04/06 05:07:01;;;;;;;5.93;3.60;;;5.70;99.90;;;;;;4928803;28;20299;-61
2022/04/06 05:09:28;;;;;;;5.63;4.30;;;5.70;99.90;;;;;;4927487;28;20777;-61
2022/04/06 05:11:55;;;;;;;8.82;4.63;;;5.80;99.90;;;;;;4925428;28;20207;-62
2022/04/06 05:14:22;;;;;;;5.47;3.72;;;5.80;99.90;;;;;;4927134;28;20535;-61
2022/04/06 05:16:49;;;;;;;5.63;3.55;;;5.80;99.90;;;;;;4927753;28;20212;-60
2022/04/06 05:19:16;;;;;;;5.38;4.00;;;5.80;99.90;;;;;;4927976;28;20046;-61
2022/04/06 05:21:43;;;;;;;7.70;4.35;;;5.80;99.90;;;;;;4930075;28;20254;-62
2022/04/06 05:24:10;;;;;;;5.97;4.15;;;5.80;99.90;;;;;;4928758;28;20682;-62
2022/04/06 05:26:40;;;;;;;7.95;4.53;;;5.90;99.90;;;;;;4929390;28;20038;-61
2022/04/06 05:29:08;;;;;;;9.25;5.72;;;5.90;99.90;;;;;;4929967;28;20251;-61
2022/04/06 05:31:36;;;;;;;8.50;5.88;;;5.90;99.90;;;;;;4927560;28;20038;-61
2022/04/06 05:34:03;;;;;;;7.72;4.38;;;5.90;99.90;;;;;;4942468;28;20049;-62
2022/04/06 05:36:30;;;;;;;7.88;4.40;;;5.90;99.90;;;;;;4943777;28;20807;-57
2022/04/06 05:38:58;;;;;;;6.75;4.45;;;5.90;99.90;;;;;;4926094;28;20318;-59
2022/04/06 05:41:25;;;;;;;5.60;4.10;;;6.00;99.90;;;;;;4937274;28;20049;-61
2022/04/06 05:43:52;;;;;;;6.05;4.05;;;6.00;99.90;;;;;;4942508;28;20050;-62
2022/04/06 05:46:20;;;;;;;5.32;3.78;;;6.00;99.90;;;;;;4942425;28;20042;-60
2022/04/06 05:48:47;;;;;;;5.22;4.05;;;6.00;99.90;;;;;;4942956;28;20041;-60
2022/04/06 05:51:14;;;;;;;5.88;4.38;;;6.10;99.90;;;;;;4946177;28;20043;-59
2022/04/06 05:53:41;;;;;;;5.90;4.18;;;6.10;99.90;;;;;;4948432;28;20105;-59
2022/04/06 05:56:08;;;;;;;6.90;4.45;;;6.20;99.90;;;;;;4948476;28;20894;-59
2022/04/06 05:58:35;;;;;;;5.85;3.92;;;6.20;99.90;;;;;;4948690;28;20065;-61
2022/04/06 06:01:02;;;;;;;4.20;3.58;;;6.20;99.90;;;;;;4948158;28;20147;-61
2022/04/06 06:03:29;;;;;;;9.57;4.90;;;6.20;99.90;;;;;;4945808;28;21020;-61
2022/04/06 06:05:57;;;;;;;6.97;4.90;;;6.30;99.90;;;;;;4948593;28;20037;-61
2022/04/06 06:08:24;;;;;;;11.52;5.93;;;6.30;99.90;;;;;;4947298;28;20046;-60
2022/04/06 06:10:51;;;;;;;8.10;5.95;;;6.30;99.90;;;;;;4939890;28;20883;-62
2022/04/06 06:13:18;;;;;;;11.60;6.20;;;6.40;99.90;;;;;;4927732;28;20109;-61
2022/04/06 06:15:45;;;;;;;9.88;5.53;;;6.40;99.90;;;;;;4927603;28;20043;-61
2022/04/06 06:18:12;;;;;;;10.70;5.40;;;6.40;99.90;;;;;;4930211;28;20216;-61
2022/04/06 06:20:40;;;;;;;7.55;5.47;;;6.50;99.90;;;;;;4927567;28;20804;-61
2022/04/06 06:23:07;;;;;;;10.05;5.57;;;6.60;99.90;;;;;;4927703;28;20243;-59
2022/04/06 06:25:35;;;;;;;8.40;5.65;;;6.60;99.90;;;;;;4926759;28;20046;-62
2022/04/06 06:28:02;;;;;;;7.43;4.80;;;6.60;99.90;;;;;;4924584;28;20133;-63
2022/04/06 06:30:29;;;;;;;8.45;4.57;;;6.70;99.90;;;;;;4929099;28;20319;-61
2022/04/06 06:32:56;;;;;;;8.10;5.25;;;6.80;99.90;;;;;;4928686;28;20104;-61
2022/04/06 06:35:24;;;;;;;11.15;5.32;;;6.80;99.90;;;;;;4928142;28;20141;-58
2022/04/06 06:37:54;;;;;;;7.07;5.05;;;6.90;99.90;;;;;;4929019;28;20041;-58
2022/04/06 06:40:23;;;;;;;13.77;4.47;;;7.00;99.90;;;;;;4943295;28;20191;-59
2022/04/06 06:42:50;;;;;;;5.80;4.50;;;7.10;99.90;;;;;;4943564;28;20041;-57
2022/04/06 06:45:18;;;;;;;7.85;5.00;;;7.20;99.90;;;;;;4943237;28;20152;-62
2022/04/06 06:47:46;;;;;;;7.15;4.60;;;7.30;99.90;;;;;;4928134;28;20057;-61
2022/04/06 06:50:15;;;;;;;6.72;5.18;;;7.30;99.90;;;;;;4945698;28;20053;-61
2022/04/06 06:52:42;;;;;;;5.82;4.05;;;7.40;99.90;;;;;;4946583;28;20204;-61
2022/04/06 06:55:15;;;;;;;5.88;4.70;;;7.50;99.90;;;;;;4942959;28;20036;-62
2022/04/06 06:57:42;;;;;;;5.97;4.10;;;7.60;99.90;;;;;;4943858;28;20212;-62
2022/04/06 07:00:11;;;;;;;8.80;4.45;;;7.70;99.90;;;;;;4944621;28;20551;-62
2022/04/06 07:02:40;;;;;;;7.82;4.93;;;7.70;99.90;;;;;;4960866;28;20065;-62
2022/04/06 07:05:10;;;;;;;7.35;4.13;;;7.80;99.90;;;;;;4949811;28;20851;-61
2022/04/06 07:07:48;;;;;;;5.72;4.22;;;7.90;99.90;;;;;;4946502;28;20045;-62
2022/04/06 07:10:15;;;;;;;;;;;8.00;99.90;;;;;;4949187;28;20056;-62
2022/04/06 07:12:42;;;;;;;11.25;4.93;;;8.10;99.90;;;;;;4931905;28;20263;-62
2022/04/06 07:15:10;;;;;;;5.65;4.40;;;8.20;99.90;;;;;;4927973;28;20053;-61
2022/04/06 07:17:37;;;;;;;4.10;3.20;;;8.30;99.90;;;;;;4925017;28;20567;-60
2022/04/06 07:20:06;;;;;;;10.05;4.30;;;8.30;99.90;;;;;;4909448;28;20189;-62
2022/04/06 07:22:34;;;;;;;6.22;4.05;;;8.40;99.90;;;;;;4926014;28;20046;-62
2022/04/06 07:25:01;;;;;;;8.40;4.80;;;8.40;99.90;;;;;;4932266;28;20058;-61
2022/04/06 07:27:36;;;;;;;6.93;4.28;;;8.40;99.90;;;;;;4927442;28;20582;-62
2022/04/06 07:30:05;;;;;;;6.75;3.90;;;8.50;99.90;;;;;;4927989;28;20042;-62
2022/04/06 07:32:33;;;;;;;6.60;4.25;;;8.60;99.90;;;;;;4928077;28;20046;-57
2022/04/06 07:35:01;;;;;;;8.38;5.03;;;8.60;99.90;;;;;;4931083;28;20944;-62
2022/04/06 07:37:38;;;;;;;7.53;3.90;;;8.80;99.90;;;;;;4921347;28;20756;-57
2022/04/06 07:40:07;;;;;;;7.75;3.90;;;9.00;99.90;;;;;;4927420;28;20188;-58
2022/04/06 07:42:35;;;;;;;6.38;4.53;;;9.10;99.90;;;;;;4924578;28;20406;-59
2022/04/06 07:45:04;;;;;;;9.90;5.15;;;9.30;99.90;;;;;;4929399;28;20493;-58
2022/04/06 07:47:32;;;;;;;7.07;5.03;;;9.70;99.90;;;;;;4926217;28;20038;-58
2022/04/06 07:50:00;;;;;;;6.97;4.95;;;10.10;99.90;;;;;;4929565;28;20760;-59
2022/04/06 07:52:28;;;;;;;7.65;4.90;;;10.40;99.90;;;;;;4930152;28;20451;-63
2022/04/06 07:54:55;;;;;;;8.75;5.45;;;10.90;99.90;;;;;;4920187;28;20789;-59
2022/04/06 07:57:24;;;;;;;9.35;5.00;;;11.30;99.90;;;;;;4931512;28;20258;-58
2022/04/06 07:59:52;;;;;;;9.35;5.72;;;11.50;99.90;;;;;;4928612;28;20039;-57
2022/04/06 08:02:20;;;;;;;9.07;5.88;;;11.60;99.90;;;;;;4929337;28;20042;-59
2022/04/06 08:04:47;;;;;;;6.78;5.53;;;11.60;99.90;;;;;;4930439;28;20298;-59
2022/04/06 08:07:14;;;;;;;20.05;8.13;;;11.70;99.90;;;;;;4928625;28;20046;-65
2022/04/06 08:09:41;;;;;;;13.63;5.93;;;11.90;99.90;;;;;;4931152;28;20107;-68
2022/04/06 08:12:08;;;;;;;12.38;5.65;;;12.20;99.90;;;;;;4930004;28;20050;-66
2022/04/06 08:14:35;;;;;;;10.80;6.68;;;12.50;99.90;;;;;;4930771;28;20069;-68
2022/04/06 08:17:04;;;;;;;9.35;5.68;;;12.70;99.90;;;;;;4930761;28;20319;-65
2022/04/06 08:19:31;;;;;;;8.57;6.00;;;12.80;99.90;;;;;;4926297;28;20555;-65
2022/04/06 08:21:58;;;;;;;7.45;4.93;;;12.90;99.90;;;;;;4927733;28;20065;-64
2022/04/06 08:24:27;;;;;;;7.45;5.47;;;13.10;99.90;;;;;;4928010;28;20112;-65
2022/04/06 08:26:54;;;;;;;6.63;4.82;;;13.20;99.90;;;;;;4933591;28;20153;-65
2022/04/06 08:29:21;;;;;;;7.47;5.10;;;13.20;99.90;;;;;;4931085;28;20072;-64
2022/04/06 08:31:49;;;;;;;11.15;6.03;;;13.30;99.90;;;;;;4929670;28;20034;-64
2022/04/06 08:34:17;;;;;;;8.00;6.60;;;13.40;99.90;;;;;;4925608;28;20193;-65
2022/04/06 08:36:45;;;;;;;7.38;5.68;;;13.50;99.90;;;;;;4927301;28;20030;-65
2022/04/06 08:39:12;;;;;;;10.77;6.95;;;13.60;99.90;;;;;;4930445;28;20046;-68
2022/04/06 08:41:39;;;;;;;7.38;5.15;;;13.80;99.90;;;;;;4931144;28;20548;-61
2022/04/06 08:44:08;;;;;;;6.57;4.65;;;14.10;99.90;;;;;;4934222;28;20580;-57
2022/04/06 08:46:36;;;;;;;8.13;4.68;;;14.30;99.90;;;;;;4931874;28;20042;-58
2022/04/06 08:49:05;;;;;;;7.07;5.25;;;14.40;99.90;;;;;;4928438;28;20054;-58
2022/04/06 08:51:34;;;;;;;7.93;5.78;;;14.40;99.90;;;;;;4927906;28;20057;-58
2022/04/06 08:54:01;;;;;;;10.60;6.13;;;14.30;99.90;;;;;;4930789;28;20043;-58
2022/04/06 08:56:29;;;;;;;9.70;6.15;;;14.10;99.90;;;;;;4928266;28;20057;-58
2022/04/06 08:58:55;;;;;;;10.50;5.30;;;13.90;99.90;;;;;;4925658;28;20584;-59
2022/04/06 09:01:22;;;;;;;9.43;5.35;;;13.80;99.90;;;;;;4930328;28;20035;-58
2022/04/06 09:03:50;;;;;;;8.52;4.93;;;13.60;99.90;;;;;;4928397;28;20576;-57
2022/04/06 09:06:18;;;;;;;9.68;5.32;;;13.60;99.90;;;;;;4929697;28;20120;-58
2022/04/06 09:08:47;;;;;;;14.45;5.40;;;13.70;99.90;;;;;;4927830;28;20343;-58
2022/04/06 09:11:19;;;;;;;6.68;5.13;;;13.90;99.90;;;;;;4927760;28;20592;-58
2022/04/06 09:13:48;;;;;;;8.00;6.03;;;14.00;99.90;;;;;;4926825;28;20945;-57
2022/04/06 09:16:17;;;;;;;7.18;5.93;;;14.20;99.90;;;;;;4928871;28;20145;-58
2022/04/06 09:18:46;;;;;;;6.20;5.05;;;14.30;99.90;;;;;;4927741;28;20223;-56
2022/04/06 09:21:15;;;;;;;11.20;6.20;;;14.40;99.90;;;;;;4929522;28;20046;-57
2022/04/06 09:23:45;;;;;;;8.02;4.90;;;14.50;99.90;;;;;;4930386;28;20556;-61
2022/04/06 09:26:12;;;;;;;6.47;5.40;;;14.60;99.90;;;;;;4927033;28;20078;-62
2022/04/06 09:28:41;;;;;;;7.20;5.50;;;14.70;99.90;;;;;;4932323;28;20046;-64
2022/04/06 09:31:14;;;;;;;8.85;6.13;;;14.80;99.90;;;;;;4924414;28;20046;-63
2022/04/06 09:33:43;;;;;;;6.55;4.82;;;14.90;99.90;;;;;;4919245;28;20594;-59
2022/04/06 09:36:20;;;;;;;10.90;5.28;;;14.90;99.90;;;;;;4915552;28;20058;-68
2022/04/06 09:38:49;;;;;;;5.50;4.68;;;14.90;99.90;;;;;;4912244;28;20146;-64
2022/04/06 09:41:18;;;;;;;6.90;5.38;;;15.10;99.90;;;;;;4924463;28;20038;-62
2022/04/06 09:43:47;;;;;;;10.90;5.43;;;15.50;99.90;;;;;;4923646;28;20442;-61
2022/04/06 09:49:17;;;;;;;10.63;4.40;;;16.20;97.80;;;;;;4927436;28;20594;-58
2022/04/06 09:51:53;;;;;;;8.23;3.88;;;16.60;94.60;;;;;;4930877;28;20049;-60
2022/04/06 09:54:23;;;;;;;6.25;4.03;;;16.90;90.30;;;;;;4929895;28;20602;-58
2022/04/06 09:56:54;;;;;;;5.78;4.38;;;17.10;89.50;;;;;;4931282;28;20324;-64
2022/04/06 09:59:22;;;;;;;6.30;4.60;;;17.20;86.20;;;;;;4933243;28;20552;-64
2022/04/06 10:01:52;;;;;;;5.57;4.20;;;17.20;85.60;;;;;;4941931;28;20038;-63
2022/04/06 10:04:26;;;;;;;6.97;4.35;;;17.10;87.70;;;;;;4947268;28;20053;-62
2022/04/06 10:06:56;;;;;;;5.10;3.75;;;17.00;83.60;;;;;;4927602;28;20567;-63
2022/04/06 10:09:25;;;;;;;5.45;4.35;;;17.00;83.90;;;;;;4944631;28;20137;-64
2022/04/06 10:11:54;;;;;;;6.60;3.80;;;17.00;81.70;;;;;;4938952;28;20053;-64
2022/04/06 10:14:24;;;;;;;4.82;3.88;;;17.10;81.20;;;;;;4964915;28;20044;-64
2022/04/06 10:16:52;;;;;;;4.97;3.35;;;17.10;80.30;;;;;;4929729;28;20056;-64
2022/04/06 10:19:21;;;;;;;4.32;2.45;;;17.20;81.00;;;;;;4910595;28;20125;-64
2022/04/06 10:22:04;;;;;;;3.13;2.38;;;17.10;74.80;;;;;;4924411;28;20062;-64
2022/04/06 10:25:01;;;;;;;2.70;2.45;;;16.90;73.10;;;;;;4930894;28;20213;-64
2022/04/06 10:27:35;;;;;;;2.27;2.07;;;16.50;72.40;;;;;;4929406;28;20220;-63
2022/04/06 10:30:23;;;;;;;2.75;2.08;;;16.20;75.80;;;;;;4923474;28;20667;-64
2022/04/06 10:32:51;;;;;;;3.47;2.53;;;16.10;77.40;;;;;;4929489;28;20850;-63
2022/04/06 10:35:34;;;;;;;3.05;1.80;;;16.20;80.40;;;;;;4924480;28;20061;-64
2022/04/06 10:38:04;;;;;;;7.75;3.92;;;16.60;74.80;;;;;;4921988;28;20568;-57
2022/04/06 10:40:59;;;;;;;5.55;4.10;;;17.00;77.10;;;;;;4927144;28;20105;-58
2022/04/06 10:43:34;;;;;;;4.43;2.78;;;17.30;74.90;;;;;;4926326;28;20107;-60
2022/04/06 10:46:15;;;;;;;4.45;2.95;;;17.60;77.80;;;;;;4946777;28;20358;-61
2022/04/06 10:49:08;;;;;;;2.83;2.53;;;18.00;77.40;;;;;;4926240;28;20137;-61
2022/04/06 10:51:37;;;;;;;1.98;1.77;;;18.40;74.30;;;;;;4927335;28;20046;-60
2022/04/06 10:54:13;;;;;;;1.40;1.17;;;18.60;68.30;;;;;;4927595;28;20219;-61
2022/04/06 10:56:49;;;;;;;1.80;0.90;;;18.30;59.40;;;;;;4929387;28;20140;-59
2022/04/06 10:59:18;;;;;;;2.83;1.90;;;18.10;59.90;;;;;;4929825;28;20045;-59
2022/04/06 11:01:46;;;;;;;0.95;0.82;;;17.90;59.40;;;;;;4930393;28;20046;-58
2022/04/06 11:04:21;;;;;;;1.05;0.70;;;17.70;59.90;;;;;;4927312;28;21193;-58
2022/04/06 11:06:49;;;;;;;0.90;0.75;;;17.60;59.00;;;;;;4942039;28;20215;-59
2022/04/06 11:12:12;;;;;;;0.68;0.65;;;17.60;60.40;;;;;;4939835;28;20536;-60
2022/04/06 11:14:40;;;;;;;1.13;1.02;;;17.80;63.40;;;;;;4941456;28;20710;-57
2022/04/06 11:17:45;;;;;;;1.10;0.95;;;18.00;57.00;;;;;;4937388;28;20065;-61
2022/04/06 11:20:15;;;;;;;2.20;0.70;;;18.20;59.20;;;;;;4935026;28;20050;-63
2022/04/06 11:22:55;;;;;;;1.85;1.02;;;18.40;59.50;;;;;;4927647;28;20049;-62
2022/04/06 11:25:24;;;;;;;1.08;0.85;;;18.60;57.10;;;;;;4926962;28;20050;-62
2022/04/06 11:27:51;;;;;;;3.25;0.95;;;18.60;58.20;;;;;;4927076;28;20572;-60
2022/04/06 11:30:21;;;;;;;0.70;0.70;;;18.60;57.70;;;;;;4925575;28;20042;-63
2022/04/06 11:32:59;;;;;;;1.00;0.90;;;18.80;60.90;;;;;;4930688;28;20255;-61
2022/04/06 11:35:28;;;;;;;1.33;0.85;;;19.10;56.40;;;;;;4931804;28;20334;-61
2022/04/06 11:37:56;;;;;;;1.02;0.77;;;19.10;55.00;;;;;;4931614;28;20045;-61
2022/04/06 11:40:24;;;;;;;1.38;0.68;;;19.10;54.90;;;;;;4932681;28;20124;-62
2022/04/06 11:42:54;;;;;;;0.82;0.82;;;19.00;53.70;;;;;;4931961;28;20197;-62
2022/04/06 11:45:23;;;;;;;0.90;0.70;;;18.90;53.90;;;;;;4931615;28;20359;-63
2022/04/06 11:47:59;;;;;;;0.75;0.73;;;19.00;56.00;;;;;;4930357;28;20042;-62
2022/04/06 11:50:34;;;;;;;0.55;0.55;;;18.90;53.60;;;;;;4930182;28;20366;-62
2022/04/06 11:53:09;;;;;;;0.90;0.52;;;18.70;56.30;;;;;;4932686;28;20909;-61
2022/04/06 11:55:51;;;;;;;0.85;0.60;;;18.60;55.00;;;;;;4931651;28;20710;-61
2022/04/06 11:58:32;;;;;;;0.70;0.70;;;18.50;55.20;;;;;;4929520;28;20820;-63
2022/04/06 12:01:08;;;;;;;1.27;0.60;;;18.30;54.10;;;;;;4927508;28;20042;-62
2022/04/06 12:03:38;;;;;;;0.55;0.55;;;18.10;54.70;;;;;;4929669;28;20221;-62
2022/04/06 12:06:09;;;;;;;0.57;0.57;;;18.00;55.00;;;;;;4933615;28;20362;-62
2022/04/06 12:08:38;;;;;;;1.08;0.70;;;17.80;56.00;;;;;;4932713;28;20050;-62
2022/04/06 12:11:05;;;;;;;0.60;0.60;;;17.70;55.80;;;;;;4932579;28;20808;-62
2022/04/06 12:13:36;;;;;;;0.98;0.80;;;17.50;56.20;;;;;;4931414;28;20235;-62
2022/04/06 12:16:04;;;;;;;2.55;0.63;;;17.30;56.30;;;;;;4931037;28;20084;-62
2022/04/06 12:18:32;;;;;;;0.70;0.70;;;17.20;57.50;;;;;;4931669;28;20042;-63
2022/04/06 12:21:00;;;;;;;0.80;0.50;;;17.10;59.10;;;;;;4933076;28;20046;-58
2022/04/06 12:23:29;;;;;;;0.70;0.70;;;17.10;59.50;;;;;;4931279;28;20500;-60
2022/04/06 12:25:58;;;;;;;1.38;0.93;;;17.00;58.30;;;;;;4930782;28;20042;-59
2022/04/06 12:28:27;;;;;;;0.50;0.50;;;16.90;58.40;;;;;;4929440;28;20524;-59
2022/04/06 12:31:02;;;;;;;4.13;0.60;;;16.80;58.00;;;;;;4912694;28;20646;-57
2022/04/06 12:33:42;;;;;;;0.85;0.55;;;16.80;61.30;;;;;;4934427;28;20042;-59
2022/04/06 12:36:16;;;;;;;0.80;0.80;;;17.20;62.00;;;;;;4911577;28;20034;-62
2022/04/06 12:38:57;;;;;;;0.68;0.65;;;17.60;58.10;;;;;;4916422;28;20351;-63
2022/04/06 12:41:25;;;;;;;0.98;0.80;;;18.10;56.00;;;;;;4922194;28;20065;-63
2022/04/06 12:43:53;;;;;;;2.03;0.98;;;18.30;55.30;;;;;;4931975;28;20047;-62
2022/04/06 12:46:40;;;;;;;1.08;0.80;;;18.20;54.70;;;;;;4932826;28;20153;-63
2022/04/06 12:49:27;;;;;;;0.77;0.77;;;17.90;55.20;;;;;;4923326;28;20582;-62
2022/04/06 12:52:09;;;;;;;1.23;0.80;;;17.60;55.50;;;;;;4928958;28;20054;-63
2022/04/06 12:54:38;;;;;;;3.28;0.90;;;17.40;57.00;;;;;;4913263;28;20050;-63
2022/04/06 12:57:28;;;;;;;2.50;1.02;;;17.30;56.90;;;;;;4930098;28;20038;-63
2022/04/06 13:00:00;;;;;;;0.82;0.70;;;17.20;57.70;;;;;;4930211;28;20061;-63
2022/04/06 13:02:33;;;;;;;1.65;0.98;;;17.10;58.70;;;;;;4931896;28;20046;-63
2022/04/06 13:05:03;;;;;;;3.35;0.95;;;17.00;60.80;;;;;;4930904;28;20046;-63
2022/04/06 13:07:30;;;;;;;1.10;1.00;;;17.20;60.00;;;;;;4932537;28;20078;-63
2022/04/06 13:10:11;;;;;;;2.75;1.35;;;17.40;59.00;;;;;;4931618;28;20598;-63
2022/04/06 13:12:41;;;;;;;3.15;0.90;;;17.60;57.60;;;;;;4929297;28;20873;-63
2022/04/06 13:15:10;;;;;;;1.08;0.98;;;17.50;57.30;;;;;;4939529;28;20053;-63